createdAt,value
2023-04-02T00:02:55.110Z,10.70
2023-04-02T00:06:44.902Z,10.70
2023-04-02T00:10:48.530Z,10.70
2023-04-02T00:14:35.767Z,10.60
2023-04-02T00:18:21.934Z,10.60
2023-04-02T00:22:07.498Z,10.60
2023-04-02T00:25:49.266Z,10.60
2023-04-02T00:29:31.061Z,10.60
2023-04-02T00:33:17.334Z,10.50
2023-04-02T00:36:59.943Z,10.50
2023-04-02T00:40:42.645Z,10.50
2023-04-02T00:44:29.285Z,10.50
2023-04-02T00:48:32.440Z,10.50
2023-04-02T00:52:22.247Z,10.50
2023-04-02T00:56:14.668Z,10.50
2023-04-02T01:00:08.266Z,10.50
2023-04-02T01:03:59.168Z,10.50
2023-04-02T01:07:52.956Z,10.40
2023-04-02T01:11:53.124Z,10.40
2023-04-02T01:15:43.658Z,10.40
2023-04-02T01:19:58.592Z,10.40
2023-04-02T01:24:01.165Z,10.40
2023-04-02T01:28:00.602Z,10.30
2023-04-02T01:31:45.411Z,10.30
2023-04-02T01:35:31.446Z,10.30
2023-04-02T01:39:24.881Z,10.20
2023-04-02T01:43:12.638Z,10.20
2023-04-02T01:46:55.523Z,10.20
2023-04-02T01:50:39.239Z,10.20
2023-04-02T01:54:22.305Z,10.10
2023-04-02T01:58:04.723Z,10.10
2023-04-02T02:02:09.408Z,10.10
2023-04-02T02:05:51.755Z,10.10
2023-04-02T02:09:36.017Z,10.10
2023-04-02T02:13:17.930Z,10.10
2023-04-02T02:17:02.460Z,10.10
2023-04-02T02:20:44.615Z,10.10
2023-04-02T02:24:32.306Z,10.10
2023-04-02T02:28:35.339Z,10.10
2023-04-02T02:32:20.652Z,10.10
2023-04-02T02:36:15.049Z,10.10
2023-04-02T02:39:59.507Z,10.00
2023-04-02T02:43:56.112Z,10.00
2023-04-02T02:47:39.163Z,10.00
2023-04-02T02:51:27.510Z,10.00
2023-04-02T02:55:14.501Z,10.00
2023-04-02T02:58:56.673Z,10.00
2023-04-02T03:02:41.661Z,10.00
2023-04-02T03:06:24.379Z,10.00
2023-04-02T03:10:32.608Z,10.00
2023-04-02T03:14:26.627Z,10.00
2023-04-02T03:18:20.325Z,10.00
2023-04-02T03:22:12.576Z,10.00
2023-04-02T03:26:00.442Z,10.00
2023-04-02T03:29:49.547Z,10.00
2023-04-02T03:33:35.927Z,10.00
2023-04-02T03:37:39.192Z,10.00
2023-04-02T03:41:27.115Z,10.00
2023-04-02T03:45:25.565Z,10.00
2023-04-02T03:49:13.588Z,10.00
2023-04-02T03:52:58.268Z,10.10
2023-04-02T03:56:40.377Z,10.00
2023-04-02T04:00:42.137Z,10.10
2023-04-02T04:04:28.074Z,10.10
2023-04-02T04:08:27.618Z,10.10
2023-04-02T04:12:43.748Z,10.10
2023-04-02T04:16:48.446Z,10.10
2023-04-02T04:20:36.651Z,10.10
2023-04-02T04:24:22.622Z,10.00
2023-04-02T04:28:24.117Z,10.00
2023-04-02T04:32:16.994Z,10.00
2023-04-02T04:36:01.431Z,10.00
2023-04-02T04:39:49.210Z,9.90
2023-04-02T04:43:44.065Z,10.00
2023-04-02T04:47:35.941Z,10.00
2023-04-02T04:51:31.844Z,10.00
2023-04-02T04:55:34.444Z,10.00
2023-04-02T04:59:23.606Z,10.00
2023-04-02T05:03:18.725Z,10.00
2023-04-02T05:07:10.352Z,10.00
2023-04-02T05:10:58.276Z,10.00
2023-04-02T05:15:22.494Z,10.00
2023-04-02T05:19:23.382Z,10.00
2023-04-02T05:23:27.444Z,10.00
2023-04-02T05:27:44.197Z,10.00
2023-04-02T05:31:43.320Z,10.00
2023-04-02T05:35:31.974Z,10.00
2023-04-02T05:39:24.482Z,9.90
2023-04-02T05:43:10.968Z,9.90
2023-04-02T05:47:06.676Z,9.90
2023-04-02T05:50:54.713Z,9.90
2023-04-02T05:54:49.111Z,9.90
2023-04-02T05:58:43.976Z,9.90
2023-04-02T06:02:36.296Z,9.90
2023-04-02T06:06:42.591Z,9.90
2023-04-02T06:10:42.368Z,9.90
2023-04-02T06:14:24.135Z,9.90
2023-04-02T06:18:16.201Z,9.90
2023-04-02T06:22:20.545Z,9.90
2023-04-02T06:26:24.058Z,9.90
2023-04-02T06:30:14.102Z,9.90
2023-04-02T06:33:56.459Z,9.90
2023-04-02T06:37:41.723Z,9.90
2023-04-02T06:41:24.377Z,9.90
2023-04-02T06:45:14.346Z,9.90
2023-04-02T06:49:04.582Z,9.80
2023-04-02T06:52:56.311Z,9.80
2023-04-02T06:56:43.471Z,9.80
2023-04-02T07:00:51.984Z,9.80
2023-04-02T07:04:34.229Z,9.80
2023-04-02T07:08:16.622Z,9.80
2023-04-02T07:11:58.376Z,9.90
2023-04-02T07:15:40.464Z,9.90
2023-04-02T07:19:23.108Z,9.90
2023-04-02T07:23:05.006Z,9.90
2023-04-02T07:26:48.295Z,10.00
2023-04-02T07:30:29.990Z,10.00
2023-04-02T07:34:12.038Z,10.10
2023-04-02T07:37:53.789Z,10.10
2023-04-02T07:41:54.789Z,10.20
2023-04-02T07:45:36.922Z,10.20
2023-04-02T07:49:19.041Z,10.20
2023-04-02T07:53:01.229Z,10.30
2023-04-02T07:56:43.023Z,10.30
2023-04-02T08:00:26.694Z,10.30
2023-04-02T08:04:21.359Z,10.30
2023-04-02T08:08:03.163Z,10.30
2023-04-02T08:11:46.485Z,10.30
2023-04-02T08:15:28.433Z,10.40
2023-04-02T08:19:10.304Z,10.30
2023-04-02T08:22:52.227Z,10.30
2023-04-02T08:26:34.094Z,10.40
2023-04-02T08:30:17.194Z,10.30
2023-04-02T08:33:59.009Z,10.30
2023-04-02T08:37:41.872Z,10.40
2023-04-02T08:41:28.778Z,10.40
2023-04-02T08:45:27.703Z,10.50
2023-04-02T08:49:19.673Z,10.50
2023-04-02T08:53:21.929Z,10.50
2023-04-02T08:57:18.758Z,10.60
2023-04-02T09:01:03.287Z,10.50
2023-04-02T09:04:45.302Z,10.50
2023-04-02T09:08:28.903Z,10.60
2023-04-02T09:12:26.162Z,10.60
2023-04-02T09:16:13.243Z,10.60
2023-04-02T09:20:18.773Z,10.60
2023-04-02T09:24:01.587Z,10.70
2023-04-02T09:27:49.176Z,10.80
2023-04-02T09:31:37.670Z,10.80
2023-04-02T09:35:36.591Z,10.90
2023-04-02T09:39:21.155Z,10.90
2023-04-02T09:43:06.247Z,11.00
2023-04-02T09:46:53.046Z,11.00
2023-04-02T09:50:35.008Z,11.00
2023-04-02T09:54:17.366Z,11.00
2023-04-02T09:58:14.708Z,11.10
2023-04-02T10:01:56.655Z,11.20
2023-04-02T10:05:40.997Z,11.40
2023-04-02T10:09:32.323Z,11.50
2023-04-02T10:13:43.069Z,11.50
2023-04-02T10:17:36.945Z,11.40
2023-04-02T10:21:25.235Z,11.40
2023-04-02T10:25:18.611Z,11.40
2023-04-02T10:29:00.278Z,11.40
2023-04-02T10:32:45.515Z,11.40
2023-04-02T10:36:48.201Z,11.40
2023-04-02T10:40:42.570Z,11.40
2023-04-02T10:44:49.130Z,11.50
2023-04-02T10:48:39.292Z,11.60
2023-04-02T10:52:31.073Z,11.70
2023-04-02T10:56:14.015Z,11.80
2023-04-02T11:00:17.485Z,11.80
2023-04-02T11:04:03.238Z,11.80
2023-04-02T11:08:10.104Z,11.80
2023-04-02T11:11:54.820Z,11.90
2023-04-02T11:15:37.600Z,12.00
2023-04-02T11:19:19.691Z,12.10
2023-04-02T11:23:14.801Z,12.10
2023-04-02T11:27:12.147Z,12.20
2023-04-02T11:30:55.344Z,12.20
2023-04-02T11:35:03.009Z,12.10
2023-04-02T11:38:50.136Z,12.20
2023-04-02T11:42:35.411Z,12.30
2023-04-02T11:46:20.426Z,12.40
2023-04-02T11:50:04.419Z,12.40
2023-04-02T11:53:47.624Z,12.50
2023-04-02T11:57:37.358Z,12.60
2023-04-02T12:01:45.335Z,12.70
2023-04-02T12:05:46.120Z,12.80
2023-04-02T12:09:49.701Z,12.90
2023-04-02T12:13:40.504Z,12.90
2023-04-02T12:17:32.554Z,13.00
2023-04-02T12:21:19.248Z,13.00
2023-04-02T12:25:31.372Z,13.00
2023-04-02T12:29:27.514Z,12.90
2023-04-02T12:33:33.776Z,13.00
2023-04-02T12:37:41.523Z,13.00
2023-04-02T12:41:36.135Z,12.90
2023-04-02T12:45:36.658Z,12.90
2023-04-02T12:49:37.930Z,12.90
2023-04-02T12:53:24.370Z,13.00
2023-04-02T12:57:23.015Z,12.90
2023-04-02T13:01:14.352Z,13.00
2023-04-02T13:05:01.479Z,13.00
2023-04-02T13:08:43.686Z,13.00
2023-04-02T13:12:39.367Z,13.00
2023-04-02T13:16:28.223Z,12.90
2023-04-02T13:20:29.288Z,12.90
2023-04-02T13:24:28.104Z,12.80
2023-04-02T13:28:10.285Z,12.70
2023-04-02T13:31:54.048Z,12.70
2023-04-02T13:35:36.023Z,12.80
2023-04-02T13:39:19.331Z,12.90
2023-04-02T13:43:02.721Z,13.00
2023-04-02T13:46:44.448Z,13.00
2023-04-02T13:50:26.932Z,13.00
2023-04-02T13:54:18.273Z,12.90
2023-04-02T13:58:00.000Z,12.80
2023-04-02T14:01:44.873Z,12.80
2023-04-02T14:05:55.459Z,12.70
2023-04-02T14:09:47.743Z,12.70
2023-04-02T14:13:35.742Z,12.60
2023-04-02T14:17:36.922Z,12.60
2023-04-02T14:21:18.634Z,12.50
2023-04-02T14:25:28.698Z,12.60
2023-04-02T14:29:24.421Z,12.60
2023-04-02T14:33:43.657Z,12.60
2023-04-02T14:37:41.709Z,12.60
2023-04-02T14:41:44.603Z,12.60
2023-04-02T14:45:26.342Z,12.50
2023-04-02T14:49:34.994Z,12.50
2023-04-02T14:53:42.111Z,12.50
2023-04-02T14:57:31.390Z,12.40
2023-04-02T15:01:21.610Z,12.30
2023-04-02T15:05:18.668Z,12.10
2023-04-02T15:09:24.137Z,12.10
2023-04-02T15:13:12.675Z,12.00
2023-04-02T15:16:54.493Z,11.90
2023-04-02T15:20:51.328Z,11.90
2023-04-02T15:24:43.226Z,11.90
2023-04-02T15:29:02.893Z,12.00
2023-04-02T15:32:45.951Z,12.00
2023-04-02T15:36:51.626Z,11.90
2023-04-02T15:40:55.051Z,11.90
2023-04-02T15:44:46.323Z,11.90
2023-04-02T15:48:48.183Z,11.90
2023-04-02T15:52:49.673Z,11.80
2023-04-02T15:56:37.721Z,11.80
2023-04-02T16:00:30.843Z,11.80
2023-04-02T16:04:21.712Z,11.90
2023-04-02T16:08:34.051Z,11.90
2023-04-02T16:12:19.212Z,11.90
2023-04-02T16:16:10.094Z,11.90
2023-04-02T16:20:00.823Z,11.90
2023-04-02T16:23:43.000Z,11.80
2023-04-02T16:27:33.306Z,11.80
2023-04-02T16:31:36.715Z,11.80
2023-04-02T16:35:44.564Z,11.90
2023-04-02T16:39:41.511Z,11.90
2023-04-02T16:43:48.833Z,11.80
2023-04-02T16:47:47.705Z,11.80
2023-04-02T16:51:32.430Z,11.80
2023-04-02T16:55:38.836Z,11.80
2023-04-02T16:59:32.563Z,11.80
2023-04-02T17:03:40.602Z,11.80
2023-04-02T17:07:40.629Z,11.80
2023-04-02T17:11:52.728Z,11.80
2023-04-02T17:15:41.556Z,11.80
2023-04-02T17:19:26.483Z,11.70
2023-04-02T17:23:13.510Z,11.70
2023-04-02T17:27:11.092Z,11.70
2023-04-02T17:30:57.634Z,11.70
2023-04-02T17:34:39.479Z,11.70
2023-04-02T17:38:41.798Z,11.80
2023-04-02T17:42:36.029Z,11.80
2023-04-02T17:46:28.128Z,11.80
2023-04-02T17:50:24.129Z,11.90
2023-04-02T17:54:17.491Z,11.90
2023-04-02T17:58:05.166Z,11.80
2023-04-02T18:02:22.690Z,11.80
2023-04-02T18:06:16.419Z,11.70
2023-04-02T18:10:07.163Z,11.60
2023-04-02T18:13:58.653Z,11.60
2023-04-02T18:18:02.613Z,11.50
2023-04-02T18:22:21.918Z,11.40
2023-04-02T18:26:34.919Z,11.40
2023-04-02T18:30:40.908Z,11.30
2023-04-02T18:34:44.894Z,11.20
2023-04-02T18:38:34.322Z,11.10
2023-04-02T18:42:34.502Z,11.10
2023-04-02T18:46:37.439Z,11.00
2023-04-02T18:50:46.988Z,11.00
2023-04-02T18:54:34.307Z,11.00
2023-04-02T18:58:28.873Z,11.00
2023-04-02T19:02:26.579Z,10.90
2023-04-02T19:06:20.509Z,10.90
2023-04-02T19:10:23.864Z,10.80
2023-04-02T19:14:12.737Z,10.80
2023-04-02T19:18:10.863Z,10.80
2023-04-02T19:22:18.009Z,10.80
2023-04-02T19:26:17.156Z,10.80
2023-04-02T19:30:11.655Z,10.80
2023-04-02T19:34:25.911Z,10.70
2023-04-02T19:38:20.030Z,10.70
2023-04-02T19:42:20.936Z,10.70
2023-04-02T19:46:03.021Z,10.60
2023-04-02T19:49:44.950Z,10.60
2023-04-02T19:53:26.687Z,10.50
2023-04-02T19:57:12.659Z,10.60
2023-04-02T20:00:55.184Z,10.50
2023-04-02T20:04:37.542Z,10.50
2023-04-02T20:08:19.457Z,10.30
2023-04-02T20:12:01.381Z,10.30
2023-04-02T20:15:43.169Z,10.30
2023-04-02T20:19:24.966Z,10.20
2023-04-02T20:23:07.907Z,10.10
2023-04-02T20:26:49.638Z,10.00
2023-04-02T20:30:32.431Z,10.00
2023-04-02T20:34:14.678Z,9.90
2023-04-02T20:37:56.880Z,9.90
2023-04-02T20:41:38.686Z,9.80
2023-04-02T20:45:20.461Z,9.80
2023-04-02T20:49:02.475Z,9.70
2023-04-02T20:52:44.717Z,9.60
2023-04-02T20:56:27.752Z,9.60
2023-04-02T21:00:10.968Z,9.50
2023-04-02T21:03:58.518Z,9.50
2023-04-02T21:07:40.330Z,9.40
2023-04-02T21:11:22.550Z,9.40
2023-04-02T21:15:04.582Z,9.40
2023-04-02T21:18:47.987Z,9.30
2023-04-02T21:22:29.869Z,9.20
2023-04-02T21:26:14.781Z,9.20
2023-04-02T21:29:56.654Z,9.10
2023-04-02T21:33:41.596Z,9.10
2023-04-02T21:37:23.329Z,9.00
2023-04-02T21:41:13.581Z,9.00
2023-04-02T21:44:56.034Z,8.90
2023-04-02T21:48:38.375Z,8.90
2023-04-02T21:52:20.175Z,8.90
2023-04-02T21:56:07.861Z,8.80
2023-04-02T21:59:49.627Z,8.80
2023-04-02T22:03:33.712Z,8.70
2023-04-02T22:07:15.707Z,8.70
2023-04-02T22:10:57.706Z,8.60
2023-04-02T22:14:39.476Z,8.60
2023-04-02T22:18:21.315Z,8.50
2023-04-02T22:22:03.185Z,8.40
2023-04-02T22:25:44.890Z,8.40
2023-04-02T22:29:26.649Z,8.30
2023-04-02T22:33:08.675Z,8.30
2023-04-02T22:36:50.540Z,8.20
2023-04-02T22:40:32.744Z,8.20
2023-04-02T22:44:16.974Z,8.10
2023-04-02T22:47:58.850Z,8.10
2023-04-02T22:51:40.869Z,8.00
2023-04-02T22:55:22.633Z,8.00
2023-04-02T22:59:04.715Z,8.00
2023-04-02T23:02:46.693Z,7.90
2023-04-02T23:06:28.733Z,7.90
2023-04-02T23:10:10.919Z,7.90
2023-04-02T23:13:54.734Z,7.80
2023-04-02T23:17:37.646Z,7.80
2023-04-02T23:21:20.871Z,7.80
2023-04-02T23:25:02.849Z,7.80
2023-04-02T23:28:44.972Z,7.70
2023-04-02T23:32:26.731Z,7.70
2023-04-02T23:36:18.522Z,7.70
2023-04-02T23:40:00.355Z,7.60
2023-04-02T23:43:42.352Z,7.60
2023-04-02T23:47:24.148Z,7.50
2023-04-02T23:51:06.925Z,7.50
2023-04-02T23:54:48.727Z,7.50
2023-04-02T23:58:30.803Z,7.50
